Latest Coastal Weather Observations for Bedout Island

IDW60701

Issued at 11:13 am WST Saturday 5 December 2020 (issued every 10 minutes, with the page automatically refreshed every 10 minutes)

About coastal observations | Map of coastal stations | Coastal observations for WA | Marine services | Other Formats
Station Details ID: 004100 Name: BEDOUT ISLAND Lat: -19.59 Lon: 119.10 Height: 8.6 m
Data from the previous 72 hours. | See also: Recent months at Bedout Island
Date/Time
WST
Wind Sea
Height
m
Swell Vis
km
Cloud Weather Temp
°C
Press
MSL
hPa
Rain since
9am
mm
Dir  Spd
kts
Gust
kts
Height
m
Period
s
Dir
05/11:00am W 10 11 - - - - - - - 32.6 1007.4 -
05/10:30am W 8 9 - - - - - - - 32.3 1007.7 -
05/10:00am WSW 8 9 - - - - - - - 32.1 1008.0 -
05/09:30am WSW 8 9 - - - - - - - 31.9 1008.1 -
05/09:00am SW 10 12 - - - - - - - 31.9 1008.3 -
05/08:30am SW 9 12 - - - - - - - 31.8 1008.4 -
05/08:00am SSW 11 12 - - - - - - - 31.7 1008.6 -
05/07:30am WSW 12 14 - - - - - - - 31.0 1008.9 -
05/07:00am WSW 11 13 - - - - - - - 30.0 1008.9 -
05/06:30am SW 9 11 - - - - - - - 29.1 1008.7 -
05/06:00am W 10 12 - - - - - - - 28.6 1008.4 -
05/05:30am W 10 11 - - - - - - - 28.5 1008.0 -
05/05:00am W 12 13 - - - - - - - 28.3 1007.9 -
05/04:30am W 12 14 - - - - - - - 28.5 1007.9 -
05/04:00am W 12 15 - - - - - - - 28.2 1007.7 -
05/03:30am W 14 16 - - - - - - - 28.3 1007.6 -
05/03:00am W 14 16 - - - - - - - 28.4 1007.6 -
05/02:30am W 15 17 - - - - - - - 28.4 1007.4 -
05/02:00am W 14 17 - - - - - - - 28.3 1007.5 -
05/01:30am W 15 17 - - - - - - - 28.4 1007.8 -
05/01:00am W 15 17 - - - - - - - 28.4 1008.1 -
05/12:30am W 15 19 - - - - - - - 28.5 1008.5 -
05/12:00am W 14 17 - - - - - - - 28.6 1008.7 -
 
Date/Time
WST
Wind Sea
Height
m
Swell Vis
km
Cloud Weather Temp
°C
Press
MSL
hPa
Rain since
9am
mm
Dir  Spd
kts
Gust
kts
Height
m
Period
s
Dir
04/11:30pm W 15 18 - - - - - - - 28.6 1009.0 -
04/11:00pm WSW 14 16 - - - - - - - 28.7 1009.1 -
04/10:30pm WSW 13 14 - - - - - - - 28.8 1009.2 -
04/10:00pm W 14 16 - - - - - - - 28.9 1009.2 -
04/09:30pm NNW 12 14 - - - - - - - 28.9 1008.9 -
04/09:00pm NNW 11 13 - - - - - - - 28.9 1008.6 -
04/08:30pm NNW 10 12 - - - - - - - 28.9 1008.2 -
04/08:00pm NNW 9 11 - - - - - - - 28.9 1007.9 -
04/07:30pm NNW 10 12 - - - - - - - 29.1 1007.3 -
04/07:00pm NNW 11 13 - - - - - - - 29.2 1007.1 -
04/06:30pm NNW 11 14 - - - - - - - 29.6 1006.8 -
04/06:00pm NNW 11 13 - - - - - - - 30.0 1006.5 -
04/05:30pm NNW 11 14 - - - - - - - 30.6 1006.1 -
04/05:00pm NNW 11 14 - - - - - - - 31.1 1006.1 -
04/04:30pm NNW 11 13 - - - - - - - 31.5 1005.8 -
04/04:00pm N 10 11 - - - - - - - 31.7 1005.8 -
04/03:30pm NNE 10 11 - - - - - - - 31.6 1005.9 -
04/03:00pm NNE 10 12 - - - - - - - 32.3 1006.2 -
04/02:30pm NNE 11 13 - - - - - - - 31.7 1006.5 -
04/02:00pm NNE 13 14 - - - - - - - 31.8 1006.9 -
04/01:30pm NNE 12 14 - - - - - - - 32.0 1007.2 -
04/01:00pm NE 11 13 - - - - - - - 32.2 1007.7 -
04/12:30pm NE 12 14 - - - - - - - 32.5 1008.3 -
04/12:00pm NE 14 16 - - - - - - - 32.2 1008.9 -
04/11:30am ENE 13 15 - - - - - - - 32.2 1009.2 -
04/11:00am ENE 14 16 - - - - - - - 31.8 1009.5 -
04/10:30am ENE 16 19 - - - - - - - 31.8 1009.9 -
04/10:00am E 17 20 - - - - - - - 31.9 1010.1 -
04/09:30am ESE 17 18 - - - - - - - 31.9 1010.2 -
04/09:00am ESE 15 17 - - - - - - - 31.9 1010.0 -
04/08:30am ESE 13 15 - - - - - - - 30.4 1009.9 -
04/08:00am ESE 13 15 - - - - - - - 29.9 1010.0 -
04/07:30am ESE 15 17 - - - - - - - 29.5 1010.2 -
04/07:00am ESE 15 17 - - - - - - - 30.3 1010.3 -
04/06:30am SE 13 15 - - - - - - - 29.7 1010.3 -
04/06:00am SSE 14 16 - - - - - - - 29.2 1010.1 -
04/05:30am SSE 14 17 - - - - - - - 28.8 1009.7 -
04/05:00am SSE 13 15 - - - - - - - 28.6 1009.4 -
04/04:30am S 17 21 - - - - - - - 28.5 1009.1 -
04/04:00am S 13 16 - - - - - - - 28.7 1009.1 -
04/03:36am S 5 17 - - - - - - - 28.6 1009.2 -
04/03:30am SSW 2 3 - - - - - - - 28.5 1009.2 -
04/03:00am SW 1 3 - - - - - - - 28.7 1009.2 -
04/02:30am SW 1 3 - - - - - - - 28.6 1009.3 -
04/02:00am SW 1 3 - - - - - - - 28.6 1009.8 -
04/01:30am CALM 0 3 - - - - - - - 28.5 1009.8 -
04/01:00am CALM 0 2 - - - - - - - 28.6 1009.7 -
04/12:30am CALM 0 2 - - - - - - - 28.8 1009.8 -
04/12:00am ESE 4 5 - - - - - - - 28.7 1010.4 -
 
Date/Time
WST
Wind Sea
Height
m
Swell Vis
km
Cloud Weather Temp
°C
Press
MSL
hPa
Rain since
9am
mm
Dir  Spd
kts
Gust
kts
Height
m
Period
s
Dir
03/11:30pm ESE 6 8 - - - - - - - 28.6 1010.6 -
03/11:00pm ESE 5 7 - - - - - - - 28.9 1010.6 -
03/10:30pm S 4 6 - - - - - - - 29.0 1010.8 -
03/10:00pm ESE 9 11 - - - - - - - 29.0 1010.6 -
03/09:30pm SE 7 8 - - - - - - - 28.8 1010.3 -
03/09:00pm WNW 5 6 - - - - - - - 28.8 1009.4 -
03/08:30pm NW 5 5 - - - - - - - 28.8 1009.0 -
03/08:00pm N 5 7 - - - - - - - 29.0 1009.0 -
03/07:30pm N 7 10 - - - - - - - 29.0 1008.8 -
03/07:00pm N 7 9 - - - - - - - 29.2 1008.8 -
03/06:30pm N 8 10 - - - - - - - 29.3 1007.8 -
03/06:00pm N 9 10 - - - - - - - 29.7 1007.6 -
03/05:30pm N 9 11 - - - - - - - 29.9 1007.4 -
03/05:00pm N 11 13 - - - - - - - 30.1 1007.1 -
03/04:30pm N 11 13 - - - - - - - 31.0 1006.7 -
03/04:00pm NNW 10 12 - - - - - - - 31.5 1006.5 -
03/03:30pm NNW 8 10 - - - - - - - 31.5 1006.3 -
03/03:00pm N 9 11 - - - - - - - 31.6 1006.4 -
03/02:30pm N 10 12 - - - - - - - 31.8 1006.9 -
03/02:00pm N 9 11 - - - - - - - 32.0 1007.2 -
03/01:30pm NNE 10 12 - - - - - - - 31.8 1007.8 -
03/01:00pm N 9 11 - - - - - - - 32.1 1008.3 -
03/12:30pm N 8 10 - - - - - - - 32.5 1008.4 -
03/12:00pm N 7 9 - - - - - - - 32.1 1008.8 -
03/11:30am N 7 9 - - - - - - - 31.5 1008.9 -
03/11:00am N 8 10 - - - - - - - 31.9 1009.1 -
03/10:30am N 7 8 - - - - - - - 32.2 1009.2 -
03/10:00am N 8 9 - - - - - - - 32.1 1009.2 -
03/09:30am NE 7 8 - - - - - - - 31.2 1009.3 -
03/09:00am NE 11 13 - - - - - - - 31.5 1009.6 -
03/08:30am NE 10 13 - - - - - - - 31.6 1009.7 -
03/08:00am ESE 6 7 - - - - - - - 32.2 1009.3 -
03/07:30am S 5 6 - - - - - - - 31.2 1009.0 -
03/07:00am S 6 8 - - - - - - - 30.7 1008.5 -
03/06:30am S 6 7 - - - - - - - 29.8 1008.3 -
03/06:00am S 7 8 - - - - - - - 29.2 1007.8 -
03/05:30am S 7 8 - - - - - - - 28.6 1007.6 -
03/05:00am S 6 7 - - - - - - - 28.5 1007.5 -
03/04:30am S 5 7 - - - - - - - 28.6 1007.6 -
03/04:00am S 6 8 - - - - - - - 28.6 1007.8 -
03/03:30am S 9 11 - - - - - - - 28.9 1008.1 -
03/03:00am SSW 11 14 - - - - - - - 28.8 1008.0 -
03/02:30am SW 12 14 - - - - - - - 27.9 1007.8 -
03/02:00am SW 9 11 - - - - - - - 28.3 1008.0 -
03/01:30am SW 2 7 - - - - - - - 28.1 1008.1 -
03/01:00am NE 1 4 - - - - - - - 28.1 1008.5 -
03/12:30am E 7 8 - - - - - - - 28.4 1008.9 -
03/12:00am NE 7 8 - - - - - - - 28.4 1009.3 -
 
Date/Time
WST
Wind Sea
Height
m
Swell Vis
km
Cloud Weather Temp
°C
Press
MSL
hPa
Rain since
9am
mm
Dir  Spd
kts
Gust
kts
Height
m
Period
s
Dir
02/11:30pm W 4 11 - - - - - - - 28.7 1009.4 -
02/11:00pm W 9 10 - - - - - - - 28.6 1008.6 -
02/10:30pm W 11 13 - - - - - - - 28.6 1008.5 -
02/10:00pm WNW 13 15 - - - - - - - 28.5 1008.4 -
02/09:30pm WNW 12 14 - - - - - - - 28.6 1008.1 -
02/09:00pm NW 12 14 - - - - - - - 28.7 1008.2 -
02/08:30pm NW 12 15 - - - - - - - 28.8 1008.1 -
02/08:00pm NW 12 14 - - - - - - - 28.8 1007.7 -
02/07:30pm NW 12 14 - - - - - - - 28.9 1007.0 -
02/07:00pm NW 13 15 - - - - - - - 29.1 1006.4 -
02/06:30pm NNW 12 14 - - - - - - - 29.4 1006.3 -
02/06:00pm NNW 12 15 - - - - - - - 30.0 1006.1 -
02/05:30pm NNW 13 16 - - - - - - - 30.7 1005.8 -
02/05:00pm NNW 11 15 - - - - - - - 31.6 1005.8 -
02/04:30pm NNW 13 15 - - - - - - - 31.7 1006.0 -
02/04:00pm NNW 11 13 - - - - - - - 32.1 1006.3 -
02/03:30pm N 9 11 - - - - - - - 33.6 1006.7 -
02/03:00pm N 9 11 - - - - - - - 33.7 1007.1 -
02/02:30pm N 7 10 - - - - - - - 33.3 1007.3 -
02/02:00pm NNE 6 7 - - - - - - - 32.6 1007.7 -
02/01:30pm N 6 6 - - - - - - - 32.5 1008.2 -
02/01:00pm ENE 6 7 - - - - - - - 31.8 1008.3 -
02/12:30pm ENE 7 8 - - - - - - - 32.3 1008.6 -
02/12:00pm NE 6 6 - - - - - - - 32.3 1008.8 -
02/11:30am NE 5 6 - - - - - - - 31.7 1009.1 -

Other formats

Comma delimited format used in spreadsheet applications
http://www.bom.gov.au/fwo/IDW60701/IDW60701.94310.axf

JavaScript Object Notation format (JSON) in row-major order
http://www.bom.gov.au/fwo/IDW60701/IDW60701.94310.json

Data quality

Most of these data are generated automatically and are frequently updated. Quality checks on data are not normally performed. It is possible for incorrect values to appear. Refer to information at About Latest Weather Observations and please check the disclaimer before using these data.